Latest Weather Observations for Scotts Peak

IDT60801

Issued at 11:02 pm EDT Monday 27 January 2020 (issued every 10 minutes, with the page automatically refreshed every 10 minutes)

About weather observations | Map of weather stations | Latest weather observations for TAS | Other Formats
Station Details ID: 097083 Name: SCOTTS PEAK DAM Lat: -43.04 Lon: 146.27 Height: 408.0 m
Data from the previous 72 hours. | See also: Recent months at Scotts Peak
Date/Time
EDT
Temp
°C
App
Temp
°C
Dew
Point
°C
Rel
Hum
%
Delta-T
°C
Wind Press
QNH
hPa
Press
MSL
hPa
Rain since
9am
mm
Dir  Spd
km/h
Gust
km/h
Spd
kts
Gust
kts
27/11:00pm 11.9 6.4 9.3 84 1.3 NNW 28 35 15 19 - - 0.2
27/10:30pm 11.7 6.0 8.4 80 1.7 NNW 28 37 15 20 - - 0.2
27/10:00pm 11.9 5.5 8.4 79 1.8 NNW 32 37 17 20 - - 0.2
27/09:30pm 11.8 7.7 7.7 76 2.0 NW 19 24 10 13 - - 0.2
27/09:00pm 12.0 6.1 7.3 73 2.3 WNW 28 35 15 19 - - 0.2
27/08:30pm 12.4 5.2 7.7 73 2.3 WNW 35 46 19 25 - - 0.2
27/08:00pm 12.8 5.0 8.1 73 2.4 WNW 39 48 21 26 - - 0.2
27/07:30pm 13.1 4.7 7.3 68 2.9 NW 41 57 22 31 - - 0.2
27/07:27pm 13.1 5.1 7.5 69 2.8 NW 39 57 21 31 - - 0.2
27/07:00pm 13.7 4.3 7.0 64 3.3 WNW 46 56 25 30 - - 0.2
27/06:30pm 15.5 6.9 8.7 64 3.5 WNW 44 56 24 30 - - 0.2
27/06:00pm 15.7 7.3 9.6 67 3.2 WNW 44 54 24 29 - - 0.2
27/05:44pm 14.4 6.9 8.1 66 3.2 NW 37 50 20 27 - - 0.2
27/05:30pm 14.7 8.0 9.7 72 2.6 NNW 35 43 19 23 - - 0.2
27/05:06pm 14.7 7.9 10.5 76 2.3 NW 37 56 20 30 - - 0.2
27/05:00pm 14.5 6.4 9.9 74 2.4 NW 43 56 23 30 - - 0.2
27/04:39pm 17.1 10.6 10.5 65 3.6 NW 35 61 19 33 - - 0.2
27/04:30pm 15.7 9.5 11.3 75 2.4 NW 35 44 19 24 - - 0.2
27/04:23pm 14.5 6.6 9.3 71 2.7 NW 41 56 22 30 - - 0.2
27/04:02pm 17.2 8.9 9.9 62 3.9 WNW 44 63 24 34 - - 0.2
27/04:00pm 16.1 7.0 8.6 61 3.9 WNW 46 63 25 34 - - 0.2
27/03:30pm 16.4 6.5 8.1 58 4.3 NW 50 61 27 33 - - 0.2
27/03:00pm 16.1 7.4 8.3 60 4.0 NW 44 63 24 34 - - 0.2
27/02:59pm 15.8 7.0 8.1 60 4.0 NW 44 63 24 34 - - 0.2
27/02:30pm 15.7 6.9 8.0 60 4.0 NW 44 56 24 30 - - 0.2
27/02:00pm 15.9 8.3 9.1 64 3.6 WNW 39 48 21 26 - - 0.2
27/01:30pm 14.6 6.8 8.1 65 3.3 WNW 39 52 21 28 - - 0.2
27/01:20pm 15.3 7.9 8.5 64 3.5 WNW 37 56 20 30 - - 0.2
27/01:00pm 15.9 9.6 9.6 66 3.3 NW 33 46 18 25 - - 0.2
27/12:58pm 15.2 8.8 9.3 68 3.1 NW 33 46 18 25 - - 0.2
27/12:30pm 14.3 7.9 9.3 72 2.6 NNW 33 43 18 23 - - 0.0
27/12:00pm 13.5 6.6 9.0 74 2.3 NNW 35 43 19 23 - - 0.0
27/11:30am 12.7 5.6 8.2 74 2.3 NNW 35 48 19 26 - - 0.0
27/11:00am 13.1 9.2 9.4 78 1.9 NNW 20 33 11 18 - - 0.0
27/10:30am 12.3 8.7 8.2 76 2.1 NW 17 24 9 13 - - 0.0
27/10:00am 11.4 6.3 9.3 87 1.1 NW 26 35 14 19 - - 0.0
27/09:30am 11.1 4.0 8.0 81 1.5 NNW 35 46 19 25 - - 0.0
27/09:00am 11.2 4.7 8.2 82 1.5 NNW 32 41 17 22 - - 1.6
27/08:30am 10.8 5.8 8.0 83 1.4 NNW 24 32 13 17 - - 1.6
27/08:00am 10.6 5.5 7.5 81 1.5 NW 24 39 13 21 - - 1.6
27/07:30am 10.2 5.3 8.5 89 0.8 NNW 24 37 13 20 - - 1.6
27/07:00am 10.2 4.1 8.3 88 0.9 NW 30 39 16 21 - - 1.6
27/06:30am 9.5 4.2 8.4 93 0.5 NW 26 37 14 20 - - 1.6
27/06:00am 9.8 6.0 9.8 100 0.0 NW 20 28 11 15 - - 1.6
27/05:30am 10.6 6.5 7.7 82 1.4 WNW 19 24 10 13 - - 1.4
27/05:00am 10.7 6.3 6.6 76 2.0 WNW 19 28 10 15 - - 1.4
27/04:30am 10.5 6.1 6.6 77 1.9 NW 19 28 10 15 - - 1.4
27/04:00am 10.3 5.9 7.5 83 1.4 NW 20 26 11 14 - - 1.4
27/03:30am 10.4 6.4 6.5 77 1.9 WNW 17 20 9 11 - - 1.4
27/03:00am 10.6 4.8 6.2 74 2.1 WNW 26 30 14 16 - - 1.4
27/02:30am 10.5 6.1 6.5 76 1.9 NW 19 22 10 12 - - 1.4
27/02:00am 10.6 5.3 6.6 76 1.9 NW 24 33 13 18 - - 1.4
27/01:30am 10.5 5.0 7.4 81 1.5 NW 26 32 14 17 - - 1.4
27/01:00am 10.2 3.9 7.3 82 1.4 NW 30 39 16 21 - - 1.4
27/12:30am 9.8 4.5 6.9 82 1.4 NW 24 30 13 16 - - 1.4
27/12:00am 9.7 4.4 6.6 81 1.5 NW 24 32 13 17 - - 1.4
 
Date/Time
EDT
Temp
°C
App
Temp
°C
Dew
Point
°C
Rel
Hum
%
Delta-T
°C
Wind Press
QNH
hPa
Press
MSL
hPa
Rain since
9am
mm
Dir  Spd
km/h
Gust
km/h
Spd
kts
Gust
kts
26/11:30pm 10.2 4.5 6.5 78 1.8 NW 26 35 14 19 - - 1.4
26/11:00pm 10.5 2.7 6.5 76 1.9 WNW 37 48 20 26 - - 1.4
26/10:30pm 10.6 0.8 6.9 78 1.8 NW 48 59 26 32 - - 1.4
26/10:08pm 10.5 1.1 7.0 79 1.7 NW 46 65 25 35 - - 1.4
26/10:00pm 10.6 0.0 6.9 78 1.8 NW 52 65 28 35 - - 1.4
26/09:34pm 10.8 2.2 8.2 84 1.3 NW 43 61 23 33 - - 1.4
26/09:30pm 10.9 2.3 8.3 84 1.3 NW 43 57 23 31 - - 1.4
26/09:00pm 11.1 2.5 8.7 85 1.2 NW 44 57 24 31 - - 1.4
26/08:30pm 11.2 2.6 8.2 82 1.5 NW 43 56 23 30 - - 1.4
26/08:00pm 11.2 2.5 8.4 83 1.4 NW 44 56 24 30 - - 1.4
26/07:30pm 11.7 4.3 8.4 80 1.7 NW 37 44 20 24 - - 1.4
26/07:00pm 12.1 3.1 7.4 73 2.3 WNW 44 54 24 29 - - 1.4
26/06:30pm 12.4 4.3 6.9 69 2.7 WNW 39 50 21 27 - - 1.4
26/06:00pm 13.0 3.9 6.6 65 3.1 WNW 44 56 24 30 - - 1.4
26/05:30pm 14.0 6.3 8.6 70 2.8 NW 39 50 21 27 - - 1.4
26/05:00pm 12.5 5.6 8.8 78 1.9 WNW 35 46 19 25 - - 1.4
26/04:30pm 12.3 7.4 10.0 86 1.2 W 26 35 14 19 - - 1.4
26/04:00pm 12.5 6.2 11.1 91 0.8 WNW 35 48 19 26 - - 1.4
26/03:30pm 11.5 5.9 11.5 100 0.0 NW 32 43 17 23 - - 1.4
26/03:00pm 10.9 3.8 10.9 100 0.0 WNW 39 50 21 27 - - 1.2
26/02:30pm 12.1 4.7 10.0 87 1.1 NW 39 50 21 27 - - 0.0
26/02:24pm 12.2 4.1 8.7 79 1.8 NW 41 57 22 31 - - 0.0
26/02:00pm 13.8 3.8 12.0 89 1.0 WNW 56 76 30 41 - - 0.0
26/01:31pm 14.5 4.9 10.9 79 1.9 NW 52 70 28 38 - - 0.0
26/01:30pm 14.7 4.7 10.9 78 2.1 NW 54 70 29 38 - - 0.0
26/01:00pm 11.4 1.1 9.7 89 0.9 WNW 54 74 29 40 - - 0.0
26/12:41pm 11.4 0.2 11.2 99 0.1 WNW 61 80 33 43 - - 0.0
26/12:30pm 10.8 -0.9 9.4 91 0.7 WNW 61 80 33 43 - - 0.0
26/12:27pm 11.1 0.4 9.5 90 0.8 WNW 56 78 30 42 - - 0.0
26/12:22pm 11.8 2.9 10.7 93 0.6 WNW 48 72 26 39 - - 0.0
26/12:00pm 14.5 4.2 8.2 66 3.2 WNW 52 63 28 34 - - 0.0
26/11:30am 15.0 4.2 9.1 68 3.1 WNW 56 83 30 45 - - 0.0
26/11:00am 14.0 2.8 9.8 76 2.2 NW 59 80 32 43 - - 0.0
26/10:30am 12.1 0.4 9.5 84 1.3 NW 61 87 33 47 - - 0.0
26/10:27am 12.1 1.2 9.7 85 1.2 NW 57 76 31 41 - - 0.0
26/10:11am 12.7 4.6 9.9 83 1.5 NW 43 61 23 33 - - 0.0
26/10:00am 12.5 4.1 11.2 92 0.7 NW 46 57 25 31 - - 0.0
26/09:30am 11.4 1.4 9.3 87 1.1 NW 52 74 28 40 - - 0.0
26/09:00am 10.9 2.5 9.7 92 0.6 NW 44 65 24 35 - - 6.6
26/08:47am 10.8 3.8 10.0 95 0.4 NW 37 56 20 30 - - 6.6
26/08:30am 10.8 4.7 10.5 98 0.2 NW 33 48 18 26 - - 6.6
26/08:25am 10.9 5.7 10.3 96 0.3 NW 28 48 15 26 - - 6.6
26/08:00am 10.9 5.9 9.7 92 0.6 NW 26 39 14 21 - - 6.6
26/07:30am 11.0 4.2 9.1 88 1.0 WNW 35 56 19 30 - - 6.6
26/07:00am 11.0 3.6 9.9 93 0.6 WNW 39 61 21 33 - - 6.6
26/06:54am 11.1 3.3 9.9 92 0.6 WNW 41 61 22 33 - - 6.6
26/06:30am 11.5 4.5 9.8 89 0.9 WNW 37 48 20 26 - - 6.6
26/06:00am 11.4 5.9 10.6 95 0.4 NW 30 46 16 25 - - 6.6
26/05:30am 11.5 5.2 10.9 96 0.3 WNW 35 50 19 27 - - 6.6
26/05:00am 11.7 6.0 11.2 97 0.3 WNW 32 46 17 25 - - 6.6
26/04:45am 11.8 7.0 11.5 98 0.2 NW 28 50 15 27 - - 6.6
26/04:30am 11.9 8.3 11.9 100 0.0 NW 22 32 12 17 - - 6.6
26/04:02am 12.2 6.4 11.6 96 0.3 W 33 52 18 28 - - 6.6
26/04:00am 12.1 6.9 11.6 97 0.3 W 30 44 16 24 - - 6.6
26/03:30am 11.9 8.3 11.9 100 0.0 W 22 39 12 21 - - 6.6
26/03:00am 12.5 6.3 12.5 100 0.0 WNW 37 59 20 32 - - 6.6
26/02:30am 13.1 5.3 13.1 100 0.0 WNW 46 65 25 35 - - 6.6
26/02:24am 13.4 9.9 13.4 100 0.0 W 24 57 13 31 - - 6.2
26/02:21am 13.6 11.5 13.6 100 0.0 SW 17 48 9 26 - - 6.2
26/02:00am 13.9 14.4 13.9 100 0.0 NE 4 9 2 5 - - 6.0
26/01:30am 14.0 14.1 14.0 100 0.0 NNE 6 7 3 4 - - 5.4
26/01:00am 13.9 14.0 13.9 100 0.0 N 6 9 3 5 - - 4.8
26/12:30am 13.9 13.4 13.9 100 0.0 N 9 13 5 7 - - 4.2
26/12:00am 13.9 13.8 13.9 100 0.0 N 7 11 4 6 - - 3.8
 
Date/Time
EDT
Temp
°C
App
Temp
°C
Dew
Point
°C
Rel
Hum
%
Delta-T
°C
Wind Press
QNH
hPa
Press
MSL
hPa
Rain since
9am
mm
Dir  Spd
km/h
Gust
km/h
Spd
kts
Gust
kts
25/11:30pm 14.0 12.8 14.0 100 0.0 NNW 13 15 7 8 - - 3.2
25/11:00pm 14.0 12.4 14.0 100 0.0 N 15 19 8 10 - - 2.6
25/10:30pm 14.1 11.6 14.1 100 0.0 NNW 20 28 11 15 - - 2.4
25/10:00pm 14.1 10.5 14.1 100 0.0 NNW 26 33 14 18 - - 2.0
25/09:30pm 14.1 10.1 14.1 100 0.0 NNW 28 35 15 19 - - 1.8
25/09:00pm 14.2 11.0 14.2 100 0.0 N 24 33 13 18 - - 1.8
25/08:30pm 14.2 11.9 14.2 100 0.0 NNW 19 22 10 12 - - 1.4
25/08:00pm 14.2 11.0 14.2 100 0.0 NNW 24 32 13 17 - - 1.2
25/07:30pm 14.2 11.0 14.2 100 0.0 NNW 24 30 13 16 - - 0.8
25/07:00pm 14.3 11.9 14.3 100 0.0 N 20 26 11 14 - - 0.8
25/06:30pm 14.4 11.3 14.4 100 0.0 NNW 24 32 13 17 - - 0.8
25/06:00pm 14.6 10.8 14.6 100 0.0 NNW 28 39 15 21 - - 0.6
25/05:30pm 14.8 11.0 14.8 100 0.0 NNW 28 37 15 20 - - 0.6
25/05:00pm 14.8 10.7 14.8 100 0.0 NNW 30 41 16 22 - - 0.6
25/04:30pm 15.3 11.7 15.3 100 0.0 NNW 28 35 15 19 - - 0.6
25/04:00pm 15.5 12.4 15.5 100 0.0 NNW 26 30 14 16 - - 0.6
25/03:30pm 14.6 10.4 14.6 100 0.0 NNW 30 37 16 20 - - 0.2
25/03:00pm 14.9 11.2 14.9 100 0.0 NNW 28 39 15 21 - - 0.2
25/02:30pm 14.7 10.1 14.5 99 0.1 N 32 39 17 21 - - 0.2
25/02:00pm 14.4 10.1 14.4 100 0.0 NNW 30 37 16 20 - - 0.2
25/01:30pm 14.2 9.5 14.2 100 0.0 NNW 32 46 17 25 - - 0.2
25/01:00pm 14.7 9.6 14.7 100 0.0 NNW 35 44 19 24 - - 0.2
25/12:30pm 13.6 7.3 13.6 100 0.0 NNW 39 52 21 28 - - 0.2
25/12:00pm 13.4 6.3 13.4 100 0.0 NNW 43 57 23 31 - - 0.2
25/11:30am 12.8 6.6 12.8 100 0.0 NNW 37 50 20 27 - - 0.2
25/11:19am 12.8 7.4 12.8 100 0.0 NNW 33 52 18 28 - - 0.2
25/11:00am 12.4 6.1 12.4 100 0.0 NNW 37 46 20 25 - - 0.2
25/10:30am 12.0 6.0 12.0 100 0.0 NNW 35 50 19 27 - - 0.2
25/10:17am 11.9 6.2 11.9 100 0.0 NNW 33 52 18 28 - - 0.2
25/10:00am 11.8 5.3 11.8 100 0.0 NNW 37 48 20 26 - - 0.0
25/09:36am 12.3 7.3 11.0 92 0.7 NNW 28 46 15 25 - - 0.0
25/09:30am 12.4 7.4 10.8 90 0.9 NNW 28 39 15 21 - - 0.0
25/09:00am 12.5 6.3 9.9 84 1.4 NNW 33 43 18 23 - - 1.2
25/08:30am 11.9 5.6 9.6 86 1.2 NNW 33 41 18 22 - - 1.2
25/08:00am 12.0 4.8 9.0 82 1.5 NNW 37 48 20 26 - - 1.2
25/07:30am 12.2 4.9 8.9 80 1.7 NNW 37 46 20 25 - - 1.2
25/07:00am 11.8 5.2 8.5 80 1.7 NW 33 43 18 23 - - 1.2
25/06:46am 11.8 4.8 8.3 79 1.8 NW 35 61 19 33 - - 1.2
25/06:30am 11.8 4.0 8.3 79 1.8 NNW 39 50 21 27 - - 1.2
25/06:08am 11.8 3.2 8.8 82 1.5 NNW 44 63 24 34 - - 1.2
25/06:00am 11.8 4.1 8.6 81 1.6 NW 39 50 21 27 - - 1.2
25/05:30am 12.0 4.4 9.2 83 1.4 NW 39 50 21 27 - - 1.2
25/05:00am 12.0 3.9 8.8 81 1.6 NW 41 59 22 32 - - 1.2
25/04:55am 12.0 4.8 9.0 82 1.5 NW 37 59 20 32 - - 1.2
25/04:30am 12.1 4.5 9.1 82 1.5 NW 39 50 21 27 - - 1.2
25/04:00am 12.1 5.2 8.8 80 1.7 NW 35 43 19 23 - - 1.2
25/03:30am 12.1 5.0 8.0 76 2.1 NW 35 46 19 25 - - 1.2
25/03:15am 11.9 4.7 7.8 76 2.0 NW 35 56 19 30 - - 1.2
25/03:00am 12.1 4.3 8.4 78 1.9 NW 39 50 21 27 - - 1.2
25/02:30am 11.9 4.0 7.8 76 2.0 NNW 39 59 21 32 - - 1.2
25/02:08am 12.0 4.0 7.5 74 2.2 NW 39 57 21 31 - - 1.2
25/02:00am 12.0 4.0 7.3 73 2.3 NW 39 50 21 27 - - 1.2
25/01:30am 11.9 3.1 7.4 74 2.2 NW 43 56 23 30 - - 1.2
25/01:14am 11.8 4.7 7.9 77 1.9 NW 35 54 19 29 - - 1.2
25/01:00am 11.9 4.7 9.3 84 1.3 NW 37 46 20 25 - - 1.2
25/12:30am 11.7 4.4 8.6 81 1.6 NW 37 56 20 30 - - 1.2
25/12:29am 11.7 4.4 8.6 81 1.6 NW 37 56 20 30 - - 1.2
25/12:16am 11.4 4.8 10.1 92 0.7 NW 35 44 19 24 - - 1.2
25/12:00am 11.8 5.7 9.7 87 1.1 WNW 32 50 17 27 - - 1.2
 
Date/Time
EDT
Temp
°C
App
Temp
°C
Dew
Point
°C
Rel
Hum
%
Delta-T
°C
Wind Press
QNH
hPa
Press
MSL
hPa
Rain since
9am
mm
Dir  Spd
km/h
Gust
km/h
Spd
kts
Gust
kts
24/11:30pm 11.7 5.1 10.1 90 0.8 WNW 35 48 19 26 - - 1.2
24/11:14pm 11.9 5.2 9.6 86 1.2 NW 35 54 19 29 - - 1.2

Other formats

Comma delimited format used in spreadsheet applications
http://www.bom.gov.au/fwo/IDT60801/IDT60801.95958.axf

JavaScript Object Notation format (JSON) in row-major order
http://www.bom.gov.au/fwo/IDT60801/IDT60801.95958.json

Data quality

Most of these data are generated automatically and are frequently updated. Quality checks on data are not normally performed. It is possible for incorrect values to appear. Refer to information at About Latest Weather Observations and please check the disclaimer before using these data.